createdAt,value
2022-10-05T00:01:35.541Z,101541.98
2022-10-05T00:04:16.095Z,101540.71
2022-10-05T00:06:52.386Z,101548.02
2022-10-05T00:09:24.802Z,101550.48
2022-10-05T00:11:56.756Z,101543.39
2022-10-05T00:14:33.291Z,101539.73
2022-10-05T00:17:08.063Z,101532.88
2022-10-05T00:19:40.880Z,101535.55
2022-10-05T00:22:17.505Z,101541.59
2022-10-05T00:24:52.759Z,101549.06
2022-10-05T00:27:26.717Z,101557.23
2022-10-05T00:30:02.267Z,101549.02
2022-10-05T00:32:34.124Z,101535.36
2022-10-05T00:35:06.949Z,101538.81
2022-10-05T00:37:39.078Z,101536.60
2022-10-05T00:40:20.154Z,101527.18
2022-10-05T00:43:10.371Z,101522.72
2022-10-05T00:45:47.968Z,101515.44
2022-10-05T00:48:28.767Z,101512.69
2022-10-05T00:51:15.081Z,101518.33
2022-10-05T00:53:53.739Z,101520.90
2022-10-05T00:56:40.528Z,101526.52
2022-10-05T00:59:27.012Z,101523.61
2022-10-05T01:02:07.665Z,101524.52
2022-10-05T01:04:47.654Z,101519.70
2022-10-05T01:07:30.973Z,101519.89
2022-10-05T01:10:12.798Z,101518.26
2022-10-05T01:12:50.845Z,101511.95
2022-10-05T01:15:32.577Z,101515.58
2022-10-05T01:18:13.007Z,101519.60
2022-10-05T01:20:55.016Z,101511.28
2022-10-05T01:24:09.785Z,101515.50
2022-10-05T01:27:12.713Z,101513.20
2022-10-05T01:29:54.151Z,101502.83
2022-10-05T01:32:32.361Z,101498.80
2022-10-05T01:35:17.276Z,101497.23
2022-10-05T01:37:57.034Z,101491.44
2022-10-05T01:40:37.700Z,101486.33
2022-10-05T01:43:20.807Z,101490.40
2022-10-05T01:46:01.725Z,101479.02
2022-10-05T01:48:42.855Z,101474.83
2022-10-05T01:51:23.623Z,101475.94
2022-10-05T01:54:05.936Z,101477.16
2022-10-05T01:56:44.681Z,101476.22
2022-10-05T01:59:27.670Z,101474.95
2022-10-05T02:02:05.123Z,101478.80
2022-10-05T02:05:01.389Z,101478.02
2022-10-05T02:07:41.489Z,101480.81
2022-10-05T02:10:24.276Z,101476.27
2022-10-05T02:13:00.816Z,101471.33
2022-10-05T02:15:39.984Z,101469.45
2022-10-05T02:18:18.810Z,101461.75
2022-10-05T02:20:54.031Z,101462.18
2022-10-05T02:23:32.292Z,101456.76
2022-10-05T02:26:05.922Z,101458.94
2022-10-05T02:28:41.748Z,101462.35
2022-10-05T02:31:17.253Z,101463.14
2022-10-05T02:33:49.219Z,101458.98
2022-10-05T02:36:30.870Z,101457.29
2022-10-05T02:39:12.327Z,101454.83
2022-10-05T02:41:54.548Z,101450.75
2022-10-05T02:44:35.876Z,101443.14
2022-10-05T02:47:14.877Z,101442.90
2022-10-05T02:49:53.149Z,101442.25
2022-10-05T02:52:34.764Z,101453.08
2022-10-05T02:55:19.121Z,101464.03
2022-10-05T02:57:59.285Z,101461.45
2022-10-05T03:00:35.995Z,101462.48
2022-10-05T03:03:16.671Z,101465.31
2022-10-05T03:05:54.311Z,101467.48
2022-10-05T03:08:34.132Z,101464.98
2022-10-05T03:11:13.671Z,101465.91
2022-10-05T03:13:55.854Z,101463.77
2022-10-05T03:16:39.487Z,101467.73
2022-10-05T03:19:25.857Z,101466.80
2022-10-05T03:22:05.226Z,101465.02
2022-10-05T03:24:48.555Z,101461.05
2022-10-05T03:27:34.759Z,101459.29
2022-10-05T03:30:12.753Z,101461.68
2022-10-05T03:32:56.287Z,101457.67
2022-10-05T03:35:35.921Z,101459.68
2022-10-05T03:38:18.133Z,101457.23
2022-10-05T03:40:55.840Z,101458.77
2022-10-05T03:43:47.581Z,101460.05
2022-10-05T03:46:28.634Z,101457.94
2022-10-05T03:49:08.737Z,101457.92
2022-10-05T03:51:46.573Z,101454.79
2022-10-05T03:54:24.745Z,101458.27
2022-10-05T03:56:59.509Z,101451.98
2022-10-05T03:59:34.960Z,101444.73
2022-10-05T04:02:10.437Z,101443.19
2022-10-05T04:04:49.529Z,101442.25
2022-10-05T04:07:33.370Z,101435.17
2022-10-05T04:10:08.488Z,101427.95
2022-10-05T04:12:45.978Z,101426.21
2022-10-05T04:15:28.232Z,101424.92
2022-10-05T04:18:04.676Z,101431.33
2022-10-05T04:20:44.128Z,101424.52
2022-10-05T04:23:25.898Z,101422.86
2022-10-05T04:26:03.351Z,101412.88
2022-10-05T04:28:43.863Z,101417.48
2022-10-05T04:31:23.791Z,101413.15
2022-10-05T04:34:05.671Z,101412.35
2022-10-05T04:36:47.016Z,101413.81
2022-10-05T04:39:28.209Z,101410.64
2022-10-05T04:42:12.278Z,101409.24
2022-10-05T04:45:08.305Z,101414.03
2022-10-05T04:48:19.340Z,101415.09
2022-10-05T04:51:07.348Z,101415.52
2022-10-05T04:53:47.637Z,101415.26
2022-10-05T04:56:30.363Z,101413.71
2022-10-05T04:59:33.178Z,101414.33
2022-10-05T05:02:15.553Z,101404.58
2022-10-05T05:05:15.738Z,101402.80
2022-10-05T05:07:56.752Z,101392.57
2022-10-05T05:11:05.782Z,101385.69
2022-10-05T05:13:58.884Z,101386.35
2022-10-05T05:16:37.455Z,101378.70
2022-10-05T05:19:25.543Z,101376.51
2022-10-05T05:22:04.565Z,101377.27
2022-10-05T05:24:47.295Z,101385.45
2022-10-05T05:27:39.489Z,101389.20
2022-10-05T05:30:24.153Z,101396.35
2022-10-05T05:33:09.729Z,101401.95
2022-10-05T05:36:19.509Z,101406.48
2022-10-05T05:39:07.176Z,101402.85
2022-10-05T05:41:45.512Z,101402.97
2022-10-05T05:44:24.809Z,101406.30
2022-10-05T05:47:04.477Z,101412.04
2022-10-05T05:49:49.116Z,101411.89
2022-10-05T05:52:27.129Z,101416.04
2022-10-05T05:55:03.527Z,101411.23
2022-10-05T05:57:42.579Z,101409.86
2022-10-05T06:00:22.945Z,101406.77
2022-10-05T06:03:08.052Z,101409.01
2022-10-05T06:05:45.535Z,101405.69
2022-10-05T06:08:24.590Z,101396.63
2022-10-05T06:11:07.466Z,101391.47
2022-10-05T06:13:41.783Z,101394.72
2022-10-05T06:16:22.330Z,101398.23
2022-10-05T06:18:59.735Z,101402.06
2022-10-05T06:21:38.559Z,101401.69
2022-10-05T06:24:18.101Z,101407.48
2022-10-05T06:27:27.820Z,101407.77
2022-10-05T06:30:14.286Z,101406.80
2022-10-05T06:33:06.203Z,101410.70
2022-10-05T06:35:55.481Z,101412.30
2022-10-05T06:38:52.083Z,101404.11
2022-10-05T06:41:35.330Z,101387.41
2022-10-05T06:44:16.704Z,101387.23
2022-10-05T06:46:57.258Z,101382.52
2022-10-05T06:49:54.511Z,101379.40
2022-10-05T06:53:03.769Z,101372.97
2022-10-05T06:55:47.523Z,101366.94
2022-10-05T06:58:41.372Z,101360.33
2022-10-05T07:01:24.827Z,101355.65
2022-10-05T07:04:20.888Z,101358.83
2022-10-05T07:06:59.096Z,101364.37
2022-10-05T07:09:42.324Z,101361.64
2022-10-05T07:12:38.151Z,101361.29
2022-10-05T07:15:21.857Z,101359.50
2022-10-05T07:18:10.218Z,101351.38
2022-10-05T07:20:51.790Z,101358.80
2022-10-05T07:23:36.486Z,101366.05
2022-10-05T07:26:16.987Z,101373.74
2022-10-05T07:28:54.359Z,101371.06
2022-10-05T07:31:34.295Z,101365.34
2022-10-05T07:34:15.306Z,101365.06
2022-10-05T07:37:12.350Z,101370.81
2022-10-05T07:40:00.438Z,101369.80
2022-10-05T07:42:52.056Z,101370.49
2022-10-05T07:45:35.677Z,101359.94
2022-10-05T07:48:14.936Z,101361.85
2022-10-05T07:50:59.334Z,101355.83
2022-10-05T07:53:38.057Z,101367.58
2022-10-05T07:56:16.981Z,101380.88
2022-10-05T07:58:54.126Z,101383.92
2022-10-05T08:01:29.773Z,101345.13
2022-10-05T08:04:10.963Z,101323.79
2022-10-05T08:06:49.727Z,101340.07
2022-10-05T08:09:36.902Z,101353.88
2022-10-05T08:12:21.268Z,101360.84
2022-10-05T08:14:59.137Z,101357.20
2022-10-05T08:17:44.486Z,101359.09
2022-10-05T08:20:44.743Z,101356.57
2022-10-05T08:23:29.342Z,101353.05
2022-10-05T08:26:12.851Z,101357.16
2022-10-05T08:28:54.746Z,101365.98
2022-10-05T08:31:30.055Z,101366.75
2022-10-05T08:34:16.072Z,101364.50
2022-10-05T08:36:57.285Z,101364.98
2022-10-05T08:39:33.666Z,101358.79
2022-10-05T08:42:35.506Z,101354.67
2022-10-05T08:45:32.084Z,101353.76
2022-10-05T08:48:19.714Z,101355.24
2022-10-05T08:51:22.839Z,101343.56
2022-10-05T08:54:30.037Z,101342.22
2022-10-05T08:57:27.171Z,101337.07
2022-10-05T09:00:19.295Z,101337.77
2022-10-05T09:03:34.766Z,101346.13
2022-10-05T09:06:28.561Z,101344.84
2022-10-05T09:09:32.288Z,101344.94
2022-10-05T09:12:24.227Z,101340.80
2022-10-05T09:15:25.323Z,101338.69
2022-10-05T09:18:32.406Z,101333.02
2022-10-05T09:21:14.098Z,101340.69
2022-10-05T09:23:50.157Z,101342.70
2022-10-05T09:26:59.562Z,101340.61
2022-10-05T09:30:14.202Z,101334.16
2022-10-05T09:33:16.733Z,101329.11
2022-10-05T09:36:11.144Z,101321.05
2022-10-05T09:39:10.629Z,101317.59
2022-10-05T09:41:58.393Z,101313.34
2022-10-05T09:44:51.008Z,101315.21
2022-10-05T09:47:49.019Z,101313.88
2022-10-05T09:50:50.318Z,101312.18
2022-10-05T09:53:45.366Z,101317.09
2022-10-05T09:56:42.587Z,101313.75
2022-10-05T09:59:36.157Z,101316.92
2022-10-05T10:02:21.570Z,101320.19
2022-10-05T10:05:10.289Z,101320.52
2022-10-05T10:08:06.548Z,101316.46
2022-10-05T10:11:05.210Z,101321.13
2022-10-05T10:13:56.673Z,101328.19
2022-10-05T10:16:49.894Z,101332.99
2022-10-05T10:20:10.089Z,101336.33
2022-10-05T10:23:11.125Z,101330.17
2022-10-05T10:26:02.541Z,101325.48
2022-10-05T10:29:11.234Z,101326.12
2022-10-05T10:32:01.755Z,101318.04
2022-10-05T10:34:56.413Z,101316.10
2022-10-05T10:37:40.759Z,101313.68
2022-10-05T10:40:31.331Z,101311.47
2022-10-05T10:43:23.986Z,101312.77
2022-10-05T10:46:07.742Z,101298.33
2022-10-05T10:49:06.774Z,101291.02
2022-10-05T10:52:12.849Z,101310.69
2022-10-05T10:55:12.181Z,101326.37
2022-10-05T10:58:02.605Z,101329.80
2022-10-05T11:00:47.470Z,101328.38
2022-10-05T11:03:59.664Z,101329.31
2022-10-05T11:06:45.628Z,101310.79
2022-10-05T11:09:30.658Z,101301.80
2022-10-05T11:12:37.148Z,101304.38
2022-10-05T11:15:24.123Z,101306.11
2022-10-05T11:18:12.284Z,101305.23
2022-10-05T11:21:18.687Z,101306.98
2022-10-05T11:24:29.071Z,101310.39
2022-10-05T11:27:34.314Z,101305.75
2022-10-05T11:30:26.830Z,101303.58
2022-10-05T11:33:32.564Z,101301.28
2022-10-05T11:36:35.860Z,101295.44
2022-10-05T11:39:42.870Z,101289.86
2022-10-05T11:42:50.954Z,101293.33
2022-10-05T11:45:26.760Z,101290.35
2022-10-05T11:48:23.233Z,101288.02
2022-10-05T11:51:23.981Z,101283.56
2022-10-05T11:54:17.588Z,101282.64
2022-10-05T11:56:57.815Z,101283.71
2022-10-05T11:59:36.140Z,101285.66
2022-10-05T12:02:43.614Z,101279.56
2022-10-05T12:05:22.312Z,101271.66
2022-10-05T12:08:11.053Z,101271.97
2022-10-05T12:10:53.164Z,101269.48
2022-10-05T12:13:35.321Z,101266.70
2022-10-05T12:16:13.512Z,101266.01
2022-10-05T12:18:51.904Z,101269.91
2022-10-05T12:21:32.898Z,101267.48
2022-10-05T12:24:15.386Z,101263.10
2022-10-05T12:26:54.153Z,101265.61
2022-10-05T12:29:33.812Z,101265.11
2022-10-05T12:32:11.742Z,101264.29
2022-10-05T12:35:01.458Z,101268.02
2022-10-05T12:37:46.975Z,101266.64
2022-10-05T12:40:28.022Z,101263.42
2022-10-05T12:43:11.967Z,101257.85
2022-10-05T12:45:57.980Z,101254.11
2022-10-05T12:48:56.270Z,101254.27
2022-10-05T12:51:39.982Z,101244.95
2022-10-05T12:54:23.410Z,101241.73
2022-10-05T12:56:59.630Z,101236.66
2022-10-05T12:59:41.187Z,101230.39
2022-10-05T13:02:26.001Z,101230.77
2022-10-05T13:05:03.387Z,101230.31
2022-10-05T13:07:49.827Z,101229.23
2022-10-05T13:10:34.541Z,101229.09
2022-10-05T13:13:25.303Z,101232.99
2022-10-05T13:16:04.458Z,101230.85
2022-10-05T13:18:52.797Z,101229.51
2022-10-05T13:21:34.208Z,101221.30
2022-10-05T13:24:17.448Z,101215.88
2022-10-05T13:26:55.106Z,101213.20
2022-10-05T13:29:34.262Z,101205.42
2022-10-05T13:32:15.277Z,101205.24
2022-10-05T13:34:55.853Z,101206.74
2022-10-05T13:37:37.741Z,101201.54
2022-10-05T13:40:22.816Z,101201.81
2022-10-05T13:43:01.979Z,101201.48
2022-10-05T13:45:43.640Z,101195.10
2022-10-05T13:48:40.183Z,101188.52
2022-10-05T13:51:19.632Z,101192.45
2022-10-05T13:54:02.210Z,101191.01
2022-10-05T13:56:38.924Z,101189.52
2022-10-05T13:59:22.352Z,101184.15
2022-10-05T14:02:00.712Z,101175.55
2022-10-05T14:04:48.127Z,101173.85
2022-10-05T14:07:32.429Z,101167.92
2022-10-05T14:10:11.290Z,101169.91
2022-10-05T14:12:47.163Z,101170.92
2022-10-05T14:15:29.482Z,101170.52
2022-10-05T14:18:18.216Z,101164.27
2022-10-05T14:21:03.011Z,101162.98
2022-10-05T14:23:35.399Z,101164.04
2022-10-05T14:26:20.671Z,101158.98
2022-10-05T14:29:04.782Z,101164.14
2022-10-05T14:31:38.231Z,101166.95
2022-10-05T14:34:29.439Z,101170.30
2022-10-05T14:37:07.376Z,101167.19
2022-10-05T14:39:43.966Z,101170.30
2022-10-05T14:42:20.062Z,101170.66
2022-10-05T14:45:13.361Z,101165.85
2022-10-05T14:47:52.845Z,101170.06
2022-10-05T14:50:29.690Z,101171.92
2022-10-05T14:53:16.569Z,101175.45
2022-10-05T14:56:01.319Z,101173.24
2022-10-05T14:59:04.178Z,101161.80
2022-10-05T15:01:39.271Z,101162.95
2022-10-05T15:04:27.301Z,101166.39
2022-10-05T15:07:14.691Z,101163.09
2022-10-05T15:09:59.339Z,101158.01
2022-10-05T15:12:36.778Z,101159.42
2022-10-05T15:15:25.507Z,101163.89
2022-10-05T15:18:02.043Z,101152.02
2022-10-05T15:20:43.872Z,101153.30
2022-10-05T15:23:25.733Z,101162.20
2022-10-05T15:26:09.111Z,101162.55
2022-10-05T15:28:48.531Z,101163.43
2022-10-05T15:31:32.779Z,101165.27
2022-10-05T15:34:13.234Z,101171.70
2022-10-05T15:36:54.267Z,101167.73
2022-10-05T15:39:34.844Z,101164.05
2022-10-05T15:42:11.776Z,101166.04
2022-10-05T15:44:58.133Z,101165.33
2022-10-05T15:47:45.141Z,101163.86
2022-10-05T15:50:24.126Z,101160.84
2022-10-05T15:53:03.344Z,101157.75
2022-10-05T15:55:48.570Z,101161.23
2022-10-05T15:58:46.217Z,101160.68
2022-10-05T16:01:23.442Z,101157.95
2022-10-05T16:04:03.723Z,101157.35
2022-10-05T16:07:01.454Z,101158.01
2022-10-05T16:09:47.302Z,101162.20
2022-10-05T16:12:35.340Z,101155.39
2022-10-05T16:15:26.372Z,101153.89
2022-10-05T16:18:14.902Z,101153.14
2022-10-05T16:20:55.789Z,101154.52
2022-10-05T16:23:41.028Z,101152.48
2022-10-05T16:26:25.764Z,101148.81
2022-10-05T16:29:06.576Z,101148.40
2022-10-05T16:31:49.308Z,101149.55
2022-10-05T16:34:33.279Z,101145.09
2022-10-05T16:37:15.037Z,101148.92
2022-10-05T16:39:59.619Z,101154.17
2022-10-05T16:42:42.326Z,101152.84
2022-10-05T16:45:27.746Z,101151.89
2022-10-05T16:48:07.835Z,101148.10
2022-10-05T16:50:55.743Z,101146.59
2022-10-05T16:53:32.929Z,101147.21
2022-10-05T16:56:08.776Z,101143.65
2022-10-05T16:58:54.326Z,101147.84
2022-10-05T17:01:42.173Z,101150.05
2022-10-05T17:04:41.940Z,101154.80
2022-10-05T17:07:35.563Z,101153.47
2022-10-05T17:10:38.175Z,101153.48
2022-10-05T17:13:24.392Z,101157.64
2022-10-05T17:16:07.385Z,101155.11
2022-10-05T17:22:08.890Z,101153.78
2022-10-05T17:24:55.471Z,101157.11
2022-10-05T17:27:35.845Z,101153.58
2022-10-05T17:30:54.043Z,101151.18
2022-10-05T17:33:31.091Z,101152.20
2022-10-05T17:36:22.734Z,101152.84
2022-10-05T17:39:14.651Z,101148.92
2022-10-05T17:41:47.233Z,101146.05
2022-10-05T17:44:27.093Z,101146.08
2022-10-05T17:47:00.890Z,101142.89
2022-10-05T17:50:17.710Z,101144.09
2022-10-05T17:53:38.765Z,101149.86
2022-10-05T17:56:10.934Z,101145.11
2022-10-05T17:59:03.077Z,101143.22
2022-10-05T18:01:37.548Z,101139.57
2022-10-05T18:04:42.418Z,101139.77
2022-10-05T18:07:30.782Z,101142.23
2022-10-05T18:10:23.007Z,101142.20
2022-10-05T18:13:20.764Z,101141.94
2022-10-05T18:15:52.770Z,101137.78
2022-10-05T18:18:58.175Z,101140.11
2022-10-05T18:21:37.773Z,101137.25
2022-10-05T18:24:55.875Z,101135.50
2022-10-05T18:27:44.624Z,101131.07
2022-10-05T18:30:24.146Z,101127.55
2022-10-05T18:33:25.616Z,101124.36
2022-10-05T18:36:07.681Z,101123.64
2022-10-05T18:38:53.180Z,101126.17
2022-10-05T18:41:41.728Z,101126.91
2022-10-05T18:44:31.625Z,101125.19
2022-10-05T18:47:11.305Z,101125.61
2022-10-05T18:49:54.706Z,101121.48
2022-10-05T18:52:38.626Z,101116.05
2022-10-05T18:55:19.612Z,101116.84
2022-10-05T18:58:10.236Z,101115.77
2022-10-05T19:01:00.114Z,101116.30
2022-10-05T19:03:41.503Z,101120.42
2022-10-05T19:06:21.573Z,101121.33
2022-10-05T19:09:04.135Z,101123.03
2022-10-05T19:11:43.543Z,101124.39
2022-10-05T19:14:24.522Z,101128.89
2022-10-05T19:17:18.188Z,101127.66
2022-10-05T19:20:04.115Z,101124.98
2022-10-05T19:22:50.332Z,101126.45
2022-10-05T19:25:37.867Z,101129.64
2022-10-05T19:28:20.598Z,101131.10
2022-10-05T19:31:07.131Z,101130.73
2022-10-05T19:33:59.390Z,101133.55
2022-10-05T19:36:54.512Z,101132.88
2022-10-05T19:39:36.157Z,101137.55
2022-10-05T19:42:37.262Z,101139.63
2022-10-05T19:45:19.242Z,101142.41
2022-10-05T19:48:07.510Z,101143.91
2022-10-05T19:50:40.486Z,101145.97
2022-10-05T19:53:24.221Z,101140.79
2022-10-05T19:55:56.447Z,101147.50
2022-10-05T19:58:43.819Z,101149.57
2022-10-05T20:01:30.897Z,101150.98
2022-10-05T20:04:06.974Z,101150.91
2022-10-05T20:06:45.147Z,101152.86
2022-10-05T20:09:24.764Z,101152.66
2022-10-05T20:11:56.639Z,101155.14
2022-10-05T20:14:58.566Z,101159.57
2022-10-05T20:17:53.812Z,101161.45
2022-10-05T20:20:38.256Z,101163.22
2022-10-05T20:23:24.496Z,101166.73
2022-10-05T20:26:14.196Z,101173.19
2022-10-05T20:28:46.816Z,101173.66
2022-10-05T20:31:20.016Z,101176.73
2022-10-05T20:33:52.570Z,101180.77
2022-10-05T20:36:24.710Z,101183.04
2022-10-05T20:38:56.581Z,101189.19
2022-10-05T20:41:28.387Z,101190.38
2022-10-05T20:44:04.455Z,101189.98
2022-10-05T20:46:36.614Z,101192.20
2022-10-05T20:49:10.028Z,101194.42
2022-10-05T20:51:42.587Z,101194.66
2022-10-05T20:54:19.001Z,101196.90
2022-10-05T20:56:51.067Z,101192.64
2022-10-05T20:59:23.641Z,101194.82
2022-10-05T21:01:55.762Z,101195.23
2022-10-05T21:04:36.071Z,101194.35
2022-10-05T21:07:12.425Z,101191.34
2022-10-05T21:09:46.719Z,101186.04
2022-10-05T21:12:18.660Z,101190.17
2022-10-05T21:14:52.743Z,101191.10
2022-10-05T21:17:24.801Z,101191.52
2022-10-05T21:19:56.553Z,101187.77
2022-10-05T21:22:28.750Z,101190.28
2022-10-05T21:25:00.658Z,101192.84
2022-10-05T21:27:32.704Z,101187.79
2022-10-05T21:30:04.777Z,101189.80
2022-10-05T21:32:41.779Z,101194.15
2022-10-05T21:35:16.250Z,101195.79
2022-10-05T21:37:48.227Z,101199.17
2022-10-05T21:40:20.186Z,101196.08
2022-10-05T21:42:52.064Z,101196.70
2022-10-05T21:45:24.024Z,101196.92
2022-10-05T21:47:57.292Z,101199.33
2022-10-05T21:50:29.524Z,101195.85
2022-10-05T21:53:03.502Z,101198.59
2022-10-05T21:55:39.373Z,101196.89
2022-10-05T21:58:12.921Z,101196.39
2022-10-05T22:00:44.836Z,101195.41
2022-10-05T22:03:16.757Z,101197.02
2022-10-05T22:05:48.543Z,101197.29
2022-10-05T22:08:25.383Z,101196.47
2022-10-05T22:10:58.710Z,101198.64
2022-10-05T22:13:40.230Z,101195.42
2022-10-05T22:16:13.049Z,101192.17
2022-10-05T22:18:45.541Z,101194.74
2022-10-05T22:21:18.134Z,101195.20
2022-10-05T22:23:52.633Z,101196.17
2022-10-05T22:26:24.997Z,101196.92
2022-10-05T22:28:57.128Z,101199.69
2022-10-05T22:31:29.106Z,101202.06
2022-10-05T22:34:01.272Z,101199.80
2022-10-05T22:36:34.649Z,101202.20
2022-10-05T22:39:06.516Z,101203.20
2022-10-05T22:41:38.468Z,101202.98
2022-10-05T22:44:10.647Z,101207.35
2022-10-05T22:46:42.464Z,101205.41
2022-10-05T22:49:14.255Z,101207.16
2022-10-05T22:51:46.042Z,101202.17
2022-10-05T22:54:17.900Z,101201.58
2022-10-05T22:56:49.679Z,101202.96
2022-10-05T22:59:21.493Z,101204.01
2022-10-05T23:01:53.414Z,101205.27
2022-10-05T23:04:25.710Z,101206.45
2022-10-05T23:06:57.499Z,101204.94
2022-10-05T23:09:29.457Z,101205.24
2022-10-05T23:12:01.294Z,101206.29
2022-10-05T23:14:33.354Z,101211.03
2022-10-05T23:17:06.078Z,101206.71
2022-10-05T23:19:37.875Z,101204.00
2022-10-05T23:22:09.706Z,101203.77
2022-10-05T23:24:41.563Z,101211.18
2022-10-05T23:27:13.457Z,101208.42
2022-10-05T23:29:45.355Z,101209.45
2022-10-05T23:32:17.071Z,101211.16
2022-10-05T23:34:48.829Z,101212.17
2022-10-05T23:37:22.862Z,101212.66
2022-10-05T23:39:54.785Z,101214.48
2022-10-05T23:42:26.904Z,101213.71
2022-10-05T23:44:58.639Z,101213.52
2022-10-05T23:47:30.549Z,101211.09
2022-10-05T23:50:02.742Z,101212.06
2022-10-05T23:52:34.643Z,101213.91
2022-10-05T23:55:07.966Z,101213.98
2022-10-05T23:57:40.372Z,101216.06
